Terminal Aerodrome Forecast
Issued by NWS

Home | Current Version | Previous Version | Text Only | Print | Product List | Glossary On
Versions: 1 2 3 4 5 6 7 8 9 10 11 12 13 14 15 16 17 18 19 20 21 22 23 24 25 26 27 28 29 30 31 32 33 34 35
000
FTUS43 KGRB 232300
TAFRHI
TAF
KRHI 232325Z 2400/2424 36005KT P6SM SCT050
     FM240900 00000KT 1/2SM FG BKN002
     FM241200 25004KT 5SM BR SKC
      TEMPO 2412/2413 2SM BR
     FM241300 25005KT P6SM SCT200=

USA.gov is the U.S. government's official web portal to all federal, state and local government web resources and services.